Mayville, ND

2:22 PM CDT on September 03, 2015 (GMT -0500)
PFS Hunter | | Change Station
CLOSE
Current Station
Personal Weather Station
Location: Hunter, ND
Elevation: 974 ft
Nearby Weather Stations

Elev 974 ft 47.15 °N, 97.21 °W | Updated 8 seconds ago

Clear
Clear
88.5 °F
Feels Like 96 °F
N
24.4
Wind Variable Wind from South
Gusts 28.0 mph

Today
High -- | Low -- °F
--% Chance of Precip.
Yesterday
High -- | Low -- °F
Precip. -- in
6:50 AM 8:06 PM
Waning Gibbous, 67% visible
Pressure 29.71 in
Visibility 10.0 miles
Clouds Few 3000 ft
Heat Index 96 °F
Dew Point 73 °F
Humidity 60%
Rainfall 0.00 in
Snow Depth Not available.
UV 7 out of 12
Pollen 11.70 out of 12
Air Quality Not available.
Flu Activity Not available.
METAR KGFK 031853Z 16021G29KT 10SM FEW030 32/22 A2972 RMK AO2 PK WND 15029/1852 SLP059 T03170217
Pressure 29.71 in
Visibility 10.0 miles
Clouds Few 3000 ft
Heat Index 96 °F
Dew Point 73 °F
Humidity 60%
Rainfall 0.00 in
Snow Depth Not available.
UV 7 out of 12
Pollen 11.70 out of 12
Air Quality Not available.
Flu Activity Not available.
METAR KGFK 031853Z 16021G29KT 10SM FEW030 32/22 A2972 RMK AO2 PK WND 15029/1852 SLP059 T03170217

10-Day Weather Forecast

×

Almanac

Astronomy

Sep. 03, 2015 Rise Set
Actual Time
Civil Twilight
Nautical Twilight
Astronomical Twilight
Moon
Length of Visible Light
Length of Day
Tomorrow will be .
, % of the Moon is Illuminated

Today's Extremes

State Highs State Lows

Community

WunderPhotos

Upload Photos

1,852,014 photos uploaded!

WunderBlogs® & News

Nearby

Air Quality

  Air Quality AQ Index Pollutant
Not available.

Snow Depth

Station Depth Elevation

Earthquake Activity

City Distance Mag. Time & Date
Minimum magnitude displayed is 2.5.

Coastal Water Temperatures

Place Temperature

Stations

Nearby Weather Stations

Station Location Temp. Windchill Dew Point Humidity Wind Precip. Elev Updated Type